createdAt,value
2023-01-23T00:01:25.593Z,-23.53
2023-01-23T00:03:54.508Z,-23.58
2023-01-23T00:06:22.477Z,-23.68
2023-01-23T00:08:50.559Z,-23.71
2023-01-23T00:11:24.743Z,-23.68
2023-01-23T00:13:53.172Z,-23.68
2023-01-23T00:16:22.534Z,-23.61
2023-01-23T00:18:50.711Z,-23.60
2023-01-23T00:21:22.138Z,-23.63
2023-01-23T00:23:51.048Z,-23.66
2023-01-23T00:26:20.779Z,-23.71
2023-01-23T00:28:48.918Z,-23.73
2023-01-23T00:31:18.919Z,-23.73
2023-01-23T00:33:46.976Z,-23.72
2023-01-23T00:36:15.813Z,-23.73
2023-01-23T00:38:43.739Z,-23.73
2023-01-23T00:41:11.477Z,-23.74
2023-01-23T00:43:39.352Z,-23.69
2023-01-23T00:46:07.322Z,-23.69
2023-01-23T00:48:35.175Z,-23.64
2023-01-23T00:51:03.168Z,-23.67
2023-01-23T00:53:30.966Z,-23.49
2023-01-23T00:55:58.940Z,-23.48
2023-01-23T00:58:27.497Z,-23.53
2023-01-23T01:00:55.549Z,-23.50
2023-01-23T01:03:25.573Z,-23.46
2023-01-23T01:05:53.639Z,-23.48
2023-01-23T01:08:21.576Z,-23.47
2023-01-23T01:10:49.398Z,-23.38
2023-01-23T01:13:21.616Z,-23.36
2023-01-23T01:15:53.988Z,-23.29
2023-01-23T01:18:22.246Z,-23.20
2023-01-23T01:20:50.072Z,-23.14
2023-01-23T01:23:17.989Z,-23.09
2023-01-23T01:25:45.909Z,-23.10
2023-01-23T01:28:13.822Z,-23.07
2023-01-23T01:30:42.190Z,-22.99
2023-01-23T01:33:11.461Z,-22.92
2023-01-23T01:35:42.616Z,-22.96
2023-01-23T01:38:10.525Z,-23.00
2023-01-23T01:40:38.489Z,-22.97
2023-01-23T01:43:10.470Z,-23.02
2023-01-23T01:46:16.036Z,-23.08
2023-01-23T01:48:47.391Z,-23.14
2023-01-23T01:51:38.677Z,-23.27
2023-01-23T01:54:14.666Z,-23.39
2023-01-23T01:56:53.116Z,-23.44
2023-01-23T01:59:21.149Z,-23.49
2023-01-23T02:01:50.603Z,-23.47
2023-01-23T02:04:18.719Z,-23.44
2023-01-23T02:06:47.527Z,-23.40
2023-01-23T02:09:24.052Z,-23.47
2023-01-23T02:11:52.117Z,-23.47
2023-01-23T02:14:20.801Z,-23.47
2023-01-23T02:16:52.482Z,-23.50
2023-01-23T02:19:27.827Z,-23.56
2023-01-23T02:22:00.131Z,-23.57
2023-01-23T02:24:33.747Z,-23.59
2023-01-23T02:27:01.613Z,-23.59
2023-01-23T02:29:46.434Z,-23.58
2023-01-23T02:32:15.150Z,-23.52
2023-01-23T02:34:44.344Z,-23.45
2023-01-23T02:37:12.350Z,-23.45
2023-01-23T02:39:40.595Z,-23.49
2023-01-23T02:42:10.882Z,-23.49
2023-01-23T02:44:46.739Z,-23.55
2023-01-23T02:47:17.145Z,-23.50
2023-01-23T02:49:45.261Z,-23.50
2023-01-23T02:52:13.065Z,-23.42
2023-01-23T02:54:41.180Z,-23.39
2023-01-23T02:57:10.790Z,-23.30
2023-01-23T02:59:57.956Z,-23.23
2023-01-23T03:02:27.499Z,-23.21
2023-01-23T03:04:55.488Z,-23.25
2023-01-23T03:07:23.341Z,-23.31
2023-01-23T03:09:51.407Z,-23.32
2023-01-23T03:12:19.385Z,-23.30
2023-01-23T03:14:48.914Z,-23.32
2023-01-23T03:17:16.810Z,-23.38
2023-01-23T03:19:44.459Z,-23.37
2023-01-23T03:22:12.413Z,-23.32
2023-01-23T03:24:40.367Z,-23.28
2023-01-23T03:27:08.322Z,-23.21
2023-01-23T03:30:01.882Z,-23.09
2023-01-23T03:32:31.368Z,-22.95
2023-01-23T03:34:59.806Z,-22.90
2023-01-23T03:37:27.733Z,-22.87
2023-01-23T03:40:15.711Z,-22.79
2023-01-23T03:42:43.968Z,-22.77
2023-01-23T03:45:14.976Z,-22.69
2023-01-23T03:47:43.231Z,-22.58
2023-01-23T03:50:12.014Z,-22.52
2023-01-23T03:52:40.969Z,-22.45
2023-01-23T03:55:09.761Z,-22.36
2023-01-23T03:57:39.747Z,-22.35
2023-01-23T04:00:33.733Z,-22.28
2023-01-23T04:03:05.834Z,-22.17
2023-01-23T04:05:33.728Z,-22.11
2023-01-23T04:08:02.716Z,-22.05
2023-01-23T04:10:31.479Z,-21.98
2023-01-23T04:13:04.873Z,-21.87
2023-01-23T04:15:33.899Z,-21.70
2023-01-23T04:18:05.331Z,-21.61
2023-01-23T04:20:33.703Z,-21.52
2023-01-23T04:23:01.573Z,-21.43
2023-01-23T04:25:30.933Z,-21.37
2023-01-23T04:27:58.732Z,-21.36
2023-01-23T04:30:26.753Z,-21.38
2023-01-23T04:32:55.344Z,-21.41
2023-01-23T04:35:23.818Z,-21.47
2023-01-23T04:37:53.033Z,-21.44
2023-01-23T04:40:21.997Z,-21.46
2023-01-23T04:42:54.587Z,-21.47
2023-01-23T04:45:35.244Z,-21.52
2023-01-23T04:48:21.325Z,-21.52
2023-01-23T04:50:50.029Z,-21.50
2023-01-23T04:53:18.004Z,-21.54
2023-01-23T04:55:50.145Z,-21.44
2023-01-23T04:58:19.592Z,-21.25
2023-01-23T05:00:47.607Z,-21.18
2023-01-23T05:03:17.007Z,-21.19
2023-01-23T05:05:48.349Z,-21.18
2023-01-23T05:08:16.369Z,-21.18
2023-01-23T05:10:50.342Z,-21.04
2023-01-23T05:13:20.211Z,-20.93
2023-01-23T05:15:48.347Z,-20.83
2023-01-23T05:18:17.475Z,-20.73
2023-01-23T05:20:46.878Z,-20.57
2023-01-23T05:23:14.712Z,-20.42
2023-01-23T05:25:50.389Z,-20.19
2023-01-23T05:28:18.213Z,-20.10
2023-01-23T05:30:51.154Z,-19.92
2023-01-23T05:33:42.056Z,-19.78
2023-01-23T05:36:09.940Z,-19.71
2023-01-23T05:38:37.803Z,-19.64
2023-01-23T05:41:05.866Z,-19.57
2023-01-23T05:43:39.674Z,-19.50
2023-01-23T05:46:07.633Z,-19.49
2023-01-23T05:48:50.524Z,-19.43
2023-01-23T05:51:21.056Z,-19.74
2023-01-23T05:53:49.662Z,-20.08
2023-01-23T05:56:18.693Z,-20.28
2023-01-23T05:59:10.257Z,-20.47
2023-01-23T06:01:49.424Z,-20.51
2023-01-23T06:04:36.311Z,-20.53
2023-01-23T06:07:18.960Z,-20.50
2023-01-23T06:09:48.669Z,-20.42
2023-01-23T06:12:16.521Z,-20.23
2023-01-23T06:14:44.368Z,-20.11
2023-01-23T06:17:12.625Z,-20.11
2023-01-23T06:19:40.470Z,-20.11
2023-01-23T06:22:09.296Z,-20.03
2023-01-23T06:24:55.947Z,-19.72
2023-01-23T06:27:24.551Z,-19.46
2023-01-23T06:29:53.182Z,-19.18
2023-01-23T06:32:21.599Z,-18.87
2023-01-23T06:34:50.071Z,-18.63
2023-01-23T06:37:17.789Z,-18.56
2023-01-23T06:39:46.483Z,-18.46
2023-01-23T06:42:16.406Z,-18.39
2023-01-23T06:44:48.695Z,-18.19
2023-01-23T06:47:17.088Z,-18.05
2023-01-23T06:49:48.894Z,-18.22
2023-01-23T06:52:16.833Z,-18.23
2023-01-23T06:54:47.532Z,-18.34
2023-01-23T06:57:15.466Z,-18.38
2023-01-23T06:59:44.672Z,-18.24
2023-01-23T07:02:15.225Z,-18.29
2023-01-23T07:04:48.858Z,-18.66
2023-01-23T07:07:16.709Z,-18.80
2023-01-23T07:09:46.292Z,-18.93
2023-01-23T07:12:18.778Z,-19.08
2023-01-23T07:14:47.300Z,-19.02
2023-01-23T07:17:20.273Z,-19.04
2023-01-23T07:19:48.136Z,-19.07
2023-01-23T07:22:20.087Z,-19.09
2023-01-23T07:24:48.336Z,-18.86
2023-01-23T07:27:16.289Z,-18.64
2023-01-23T07:29:44.094Z,-18.44
2023-01-23T07:32:11.904Z,-18.52
2023-01-23T07:34:39.972Z,-18.53
2023-01-23T07:37:07.814Z,-18.53
2023-01-23T07:39:35.678Z,-18.53
2023-01-23T07:42:03.394Z,-18.63
2023-01-23T07:44:31.294Z,-18.74
2023-01-23T07:46:59.109Z,-18.78
2023-01-23T07:49:26.970Z,-18.80
2023-01-23T07:51:55.071Z,-18.76
2023-01-23T07:54:22.977Z,-18.62
2023-01-23T07:56:51.628Z,-18.59
2023-01-23T07:59:19.356Z,-18.50
2023-01-23T08:01:47.242Z,-18.47
2023-01-23T08:04:15.206Z,-18.52
2023-01-23T08:06:43.050Z,-18.43
2023-01-23T08:09:10.991Z,-18.51
2023-01-23T08:11:38.929Z,-18.49
2023-01-23T08:14:06.941Z,-18.53
2023-01-23T08:16:34.854Z,-18.51
2023-01-23T08:19:02.701Z,-18.55
2023-01-23T08:21:30.636Z,-18.64
2023-01-23T08:23:58.296Z,-18.63
2023-01-23T08:26:26.155Z,-18.77
2023-01-23T08:28:54.125Z,-19.05
2023-01-23T08:31:22.094Z,-19.15
2023-01-23T08:33:50.053Z,-19.24
2023-01-23T08:36:17.887Z,-19.44
2023-01-23T08:38:45.602Z,-19.46
2023-01-23T08:41:13.474Z,-19.57
2023-01-23T08:43:44.708Z,-19.61
2023-01-23T08:46:12.710Z,-19.48
2023-01-23T08:48:40.593Z,-19.55
2023-01-23T08:51:10.087Z,-19.70
2023-01-23T08:53:37.907Z,-19.93
2023-01-23T08:56:16.343Z,-19.86
2023-01-23T08:58:44.942Z,-19.72
2023-01-23T09:01:14.189Z,-19.64
2023-01-23T09:03:41.948Z,-19.69
2023-01-23T09:06:11.703Z,-19.62
2023-01-23T09:08:39.538Z,-19.57
2023-01-23T09:11:08.803Z,-19.52
2023-01-23T09:13:36.841Z,-19.48
2023-01-23T09:16:05.274Z,-19.46
2023-01-23T09:18:33.094Z,-19.44
2023-01-23T09:21:01.028Z,-19.36
2023-01-23T09:23:28.753Z,-19.35
2023-01-23T09:25:56.627Z,-19.35
2023-01-23T09:28:24.422Z,-19.36
2023-01-23T09:30:52.379Z,-19.26
2023-01-23T09:33:25.086Z,-19.27
2023-01-23T09:35:53.257Z,-19.22
2023-01-23T09:38:21.118Z,-19.20
2023-01-23T09:40:58.080Z,-19.26
2023-01-23T09:43:32.076Z,-19.21
2023-01-23T09:46:02.506Z,-19.28
2023-01-23T09:48:44.185Z,-19.35
2023-01-23T09:51:34.554Z,-19.40
2023-01-23T09:54:26.822Z,-19.40
2023-01-23T09:56:55.820Z,-19.35
2023-01-23T09:59:32.362Z,-19.48
2023-01-23T10:02:00.200Z,-19.54
2023-01-23T10:04:27.979Z,-19.63
2023-01-23T10:07:10.861Z,-19.59
2023-01-23T10:09:50.506Z,-19.65
2023-01-23T10:12:41.404Z,-19.70
2023-01-23T10:15:30.307Z,-19.68
2023-01-23T10:18:25.938Z,-19.65
2023-01-23T10:21:03.403Z,-19.86
2023-01-23T10:23:55.765Z,-19.91
2023-01-23T10:26:26.540Z,-19.93
2023-01-23T10:28:57.064Z,-19.80
2023-01-23T10:31:29.414Z,-19.79
2023-01-23T10:34:06.935Z,-19.78
2023-01-23T10:36:54.024Z,-19.75
2023-01-23T10:39:32.251Z,-19.78
2023-01-23T10:42:02.704Z,-19.80
2023-01-23T10:44:31.919Z,-19.71
2023-01-23T10:47:03.870Z,-19.77
2023-01-23T10:49:39.531Z,-19.80
2023-01-23T10:52:10.557Z,-19.77
2023-01-23T10:54:46.387Z,-19.81
2023-01-23T10:57:14.066Z,-19.78
2023-01-23T11:00:04.706Z,-19.90
2023-01-23T11:02:41.189Z,-19.93
2023-01-23T11:05:50.422Z,-19.79
2023-01-23T11:08:31.527Z,-19.66
2023-01-23T11:11:17.224Z,-19.63
2023-01-23T11:13:46.229Z,-19.62
2023-01-23T11:16:24.318Z,-19.60
2023-01-23T11:18:52.047Z,-19.51
2023-01-23T11:21:39.701Z,-19.46
2023-01-23T11:24:38.607Z,-19.45
2023-01-23T11:27:19.714Z,-19.36
2023-01-23T11:29:53.468Z,-19.28
2023-01-23T11:32:22.152Z,-19.31
2023-01-23T11:34:57.602Z,-19.28
2023-01-23T11:37:31.252Z,-19.27
2023-01-23T11:40:02.592Z,-19.23
2023-01-23T11:42:30.306Z,-19.21
2023-01-23T11:45:01.384Z,-19.22
2023-01-23T11:47:35.173Z,-19.16
2023-01-23T11:50:18.159Z,-19.24
2023-01-23T11:53:03.549Z,-19.23
2023-01-23T11:55:55.740Z,-19.20
2023-01-23T11:58:49.080Z,-19.19
2023-01-23T12:01:49.293Z,-19.23
2023-01-23T12:04:46.678Z,-19.26
2023-01-23T12:07:24.315Z,-19.38
2023-01-23T12:10:18.549Z,-19.37
2023-01-23T12:12:59.215Z,-19.37
2023-01-23T12:15:44.876Z,-19.27
2023-01-23T12:18:32.315Z,-19.23
2023-01-23T12:21:12.415Z,-19.18
2023-01-23T12:23:52.160Z,-19.10
2023-01-23T12:26:22.821Z,-19.01
2023-01-23T12:29:22.759Z,-18.98
2023-01-23T12:32:09.287Z,-19.03
2023-01-23T12:35:09.406Z,-19.04
2023-01-23T12:37:59.392Z,-19.10
2023-01-23T12:40:39.336Z,-19.18
2023-01-23T12:43:32.777Z,-19.18
2023-01-23T12:46:12.152Z,-19.24
2023-01-23T12:48:47.829Z,-19.38
2023-01-23T12:51:19.627Z,-19.46
2023-01-23T12:53:47.844Z,-19.36
2023-01-23T12:56:18.408Z,-19.36
2023-01-23T12:58:55.583Z,-19.42
2023-01-23T13:01:53.967Z,-19.41
2023-01-23T13:04:28.011Z,-19.43
2023-01-23T13:07:04.667Z,-19.37
2023-01-23T13:10:03.107Z,-19.34
2023-01-23T13:12:31.485Z,-19.32
2023-01-23T13:15:22.591Z,-19.37
2023-01-23T13:17:59.897Z,-19.40
2023-01-23T13:21:18.143Z,-19.33
2023-01-23T13:23:46.251Z,-19.34
2023-01-23T13:26:16.969Z,-19.31
2023-01-23T13:28:48.510Z,-19.23
2023-01-23T13:31:47.552Z,-19.08
2023-01-23T13:34:18.761Z,-19.25
2023-01-23T13:36:47.603Z,-19.29
2023-01-23T13:39:18.416Z,-19.24
2023-01-23T13:41:47.304Z,-19.23
2023-01-23T13:44:35.826Z,-19.29
2023-01-23T14:24:53.537Z,-19.99
2023-01-23T14:27:29.551Z,-19.87
2023-01-23T14:30:05.573Z,-19.83
2023-01-23T14:32:35.175Z,-19.87
2023-01-23T14:35:03.255Z,-19.94
2023-01-23T14:37:31.136Z,-19.92
2023-01-23T14:40:01.929Z,-19.87
2023-01-23T14:42:35.253Z,-19.72
2023-01-23T14:45:03.253Z,-19.62
2023-01-23T14:47:37.916Z,-19.61
2023-01-23T14:50:23.855Z,-19.53
2023-01-23T14:53:01.828Z,-19.46
2023-01-23T14:55:30.737Z,-19.44
2023-01-23T14:57:59.499Z,-19.46
2023-01-23T15:00:27.407Z,-19.49
2023-01-23T15:02:56.642Z,-19.45
2023-01-23T15:05:28.534Z,-19.48
2023-01-23T15:07:59.597Z,-19.48
2023-01-23T15:10:31.392Z,-19.40
2023-01-23T15:12:59.887Z,-19.33
2023-01-23T15:15:27.543Z,-19.44
2023-01-23T15:17:55.675Z,-19.47
2023-01-23T15:20:41.494Z,-19.41
2023-01-23T15:23:31.734Z,-19.43
2023-01-23T15:26:18.269Z,-19.37
2023-01-23T15:28:52.916Z,-19.36
2023-01-23T15:31:41.183Z,-19.34
2023-01-23T15:34:15.193Z,-19.38
2023-01-23T15:37:08.751Z,-19.46
2023-01-23T15:39:58.685Z,-19.46
2023-01-23T15:42:31.574Z,-19.49
2023-01-23T15:45:01.870Z,-19.43
2023-01-23T15:47:32.061Z,-19.34
2023-01-23T15:50:03.448Z,-19.29
2023-01-23T15:52:45.977Z,-19.20
2023-01-23T15:55:13.912Z,-19.21
2023-01-23T15:57:43.622Z,-19.11
2023-01-23T16:00:21.427Z,-18.99
2023-01-23T16:02:56.211Z,-18.88
2023-01-23T16:05:32.935Z,-18.85
2023-01-23T16:08:03.833Z,-18.91
2023-01-23T16:10:34.524Z,-18.85
2023-01-23T16:13:02.635Z,-18.78
2023-01-23T16:15:34.640Z,-18.66
2023-01-23T16:18:04.930Z,-18.56
2023-01-23T16:20:41.809Z,-18.57
2023-01-23T16:23:20.901Z,-18.60
2023-01-23T16:25:49.337Z,-18.60
2023-01-23T16:28:22.465Z,-18.57
2023-01-23T16:30:51.389Z,-18.54
2023-01-23T16:33:19.714Z,-18.59
2023-01-23T16:35:48.110Z,-18.59
2023-01-23T16:38:26.920Z,-18.60
2023-01-23T16:40:55.190Z,-18.67
2023-01-23T16:43:23.633Z,-18.70
2023-01-23T16:45:54.322Z,-18.64
2023-01-23T16:48:27.600Z,-18.68
2023-01-23T16:51:15.638Z,-18.62
2023-01-23T16:53:44.882Z,-18.61
2023-01-23T16:56:25.677Z,-18.56
2023-01-23T16:58:53.567Z,-18.63
2023-01-23T17:01:22.239Z,-18.55
2023-01-23T17:04:10.369Z,-18.52
2023-01-23T17:06:38.223Z,-18.62
2023-01-23T17:09:05.923Z,-18.53
2023-01-23T17:11:35.859Z,-18.44
2023-01-23T17:14:06.209Z,-18.38
2023-01-23T17:16:34.215Z,-18.40
2023-01-23T17:19:03.394Z,-18.27
2023-01-23T17:21:33.714Z,-18.14
2023-01-23T17:24:01.683Z,-18.13
2023-01-23T17:26:29.534Z,-18.20
2023-01-23T17:28:57.464Z,-18.12
2023-01-23T17:31:27.160Z,-18.05
2023-01-23T17:33:56.100Z,-18.17
2023-01-23T17:36:25.526Z,-18.35
2023-01-23T17:38:58.093Z,-18.33
2023-01-23T17:41:25.987Z,-18.26
2023-01-23T17:43:53.804Z,-18.22
2023-01-23T17:46:23.241Z,-18.22
2023-01-23T17:48:51.170Z,-18.32
2023-01-23T17:51:19.614Z,-18.48
2023-01-23T17:53:47.870Z,-18.62
2023-01-23T17:56:16.148Z,-18.71
2023-01-23T17:58:43.996Z,-18.80
2023-01-23T18:01:22.392Z,-18.91
2023-01-23T18:03:51.180Z,-19.07
2023-01-23T18:06:19.419Z,-19.04
2023-01-23T18:08:47.294Z,-19.07
2023-01-23T18:11:24.590Z,-19.11
2023-01-23T18:14:21.721Z,-19.10
2023-01-23T18:16:50.684Z,-19.11
2023-01-23T18:19:20.055Z,-19.07
2023-01-23T18:21:49.830Z,-18.88
2023-01-23T18:24:25.551Z,-18.68
2023-01-23T18:27:01.540Z,-18.49
2023-01-23T18:29:54.558Z,-18.27
2023-01-23T18:32:28.534Z,-18.15
2023-01-23T18:35:00.394Z,-18.09
2023-01-23T18:37:46.749Z,-17.96
2023-01-23T18:40:21.820Z,-17.87
2023-01-23T18:43:08.473Z,-18.02
2023-01-23T18:45:36.618Z,-17.96
2023-01-23T18:48:13.522Z,-17.79
2023-01-23T18:51:13.654Z,-17.62
2023-01-23T18:53:56.133Z,-17.45
2023-01-23T18:56:39.541Z,-17.35
2023-01-23T18:59:35.032Z,-17.28
2023-01-23T19:02:15.088Z,-17.34
2023-01-23T19:05:12.773Z,-17.33
2023-01-23T19:07:40.893Z,-17.21
2023-01-23T19:10:15.461Z,-17.16
2023-01-23T19:13:06.644Z,-17.15
2023-01-23T19:15:41.312Z,-17.05
2023-01-23T19:18:11.991Z,-17.01
2023-01-23T19:21:18.563Z,-16.96
2023-01-23T19:23:56.272Z,-17.05
2023-01-23T19:26:25.801Z,-17.13
2023-01-23T19:28:54.493Z,-17.09
2023-01-23T19:31:30.111Z,-17.15
2023-01-23T19:33:59.133Z,-17.21
2023-01-23T19:36:27.298Z,-17.28
2023-01-23T19:39:01.195Z,-17.44
2023-01-23T19:41:47.673Z,-17.54
2023-01-23T19:44:19.035Z,-17.56
2023-01-23T19:46:47.125Z,-17.61
2023-01-23T19:49:14.898Z,-17.66
2023-01-23T19:51:42.900Z,-17.70
2023-01-23T19:54:12.894Z,-17.76
2023-01-23T19:56:41.089Z,-17.76
2023-01-23T19:59:08.903Z,-17.62
2023-01-23T20:01:50.616Z,-17.57
2023-01-23T20:04:22.447Z,-17.55
2023-01-23T20:06:52.429Z,-17.48
2023-01-23T20:09:20.615Z,-17.45
2023-01-23T20:11:48.716Z,-17.43
2023-01-23T20:14:16.647Z,-17.44
2023-01-23T20:16:44.706Z,-17.43
2023-01-23T20:19:15.954Z,-17.40
2023-01-23T20:21:43.957Z,-17.36
2023-01-23T20:24:12.174Z,-17.26
2023-01-23T20:26:40.281Z,-17.16
2023-01-23T20:29:11.600Z,-17.09
2023-01-23T20:31:39.389Z,-16.96
2023-01-23T20:34:07.829Z,-16.92
2023-01-23T20:36:35.527Z,-16.85
2023-01-23T20:39:04.146Z,-16.72
2023-01-23T20:41:31.983Z,-16.66
2023-01-23T20:43:59.848Z,-16.72
2023-01-23T20:46:27.705Z,-16.69
2023-01-23T20:48:55.992Z,-16.69
2023-01-23T20:51:23.579Z,-16.73
2023-01-23T20:53:51.406Z,-16.68
2023-01-23T20:56:20.583Z,-16.68
2023-01-23T20:59:08.107Z,-16.63
2023-01-23T21:01:55.720Z,-16.60
2023-01-23T21:04:27.040Z,-16.57
2023-01-23T21:06:54.815Z,-16.57
2023-01-23T21:09:23.640Z,-16.58
2023-01-23T21:11:52.086Z,-16.58
2023-01-23T21:14:20.127Z,-16.55
2023-01-23T21:16:48.233Z,-16.50
2023-01-23T21:19:16.129Z,-16.52
2023-01-23T21:21:43.914Z,-16.51
2023-01-23T21:24:11.884Z,-16.55
2023-01-23T21:26:39.774Z,-16.54
2023-01-23T21:29:07.749Z,-16.50
2023-01-23T21:31:37.607Z,-16.38
2023-01-23T21:34:08.134Z,-16.32
2023-01-23T21:36:36.077Z,-16.29
2023-01-23T21:39:04.723Z,-16.25
2023-01-23T21:41:32.511Z,-16.17
2023-01-23T21:44:00.257Z,-16.21
2023-01-23T21:46:28.178Z,-16.26
2023-01-23T21:48:56.025Z,-16.31
2023-01-23T21:51:25.591Z,-16.36
2023-01-23T21:53:53.421Z,-16.33
2023-01-23T21:56:23.035Z,-16.21
2023-01-23T21:58:50.976Z,-16.11
2023-01-23T22:01:33.089Z,-16.01
2023-01-23T22:04:02.693Z,-16.08
2023-01-23T22:06:30.963Z,-16.06
2023-01-23T22:08:58.714Z,-15.97
2023-01-23T22:11:26.705Z,-15.93
2023-01-23T22:13:55.044Z,-15.88
2023-01-23T22:16:31.896Z,-15.85
2023-01-23T22:19:08.155Z,-15.76
2023-01-23T22:21:35.907Z,-15.74
2023-01-23T22:24:03.977Z,-15.72
2023-01-23T22:26:31.823Z,-15.76
2023-01-23T22:28:59.627Z,-15.83
2023-01-23T22:31:27.600Z,-15.83
2023-01-23T22:33:55.996Z,-15.79
2023-01-23T22:36:23.916Z,-15.81
2023-01-23T22:38:52.640Z,-15.75
2023-01-23T22:41:20.637Z,-15.74
2023-01-23T22:43:55.499Z,-15.71
2023-01-23T22:46:23.537Z,-15.69
2023-01-23T22:48:51.835Z,-15.67
2023-01-23T22:51:24.912Z,-15.64
2023-01-23T22:53:53.612Z,-15.64
2023-01-23T22:56:21.853Z,-15.59
2023-01-23T22:58:50.377Z,-15.70
2023-01-23T23:01:18.946Z,-15.81
2023-01-23T23:03:47.138Z,-15.84
2023-01-23T23:06:15.981Z,-15.89
2023-01-23T23:08:47.126Z,-15.88
2023-01-23T23:11:22.949Z,-15.87
2023-01-23T23:13:50.952Z,-15.83
2023-01-23T23:16:24.619Z,-15.94
2023-01-23T23:18:53.930Z,-16.09
2023-01-23T23:21:24.041Z,-16.14
2023-01-23T23:23:52.705Z,-16.17
2023-01-23T23:26:23.660Z,-16.22
2023-01-23T23:28:52.696Z,-16.24
2023-01-23T23:31:20.630Z,-16.18
2023-01-23T23:33:48.434Z,-16.13
2023-01-23T23:36:16.357Z,-15.96
2023-01-23T23:38:44.245Z,-15.88
2023-01-23T23:41:13.648Z,-15.81
2023-01-23T23:43:41.499Z,-15.77
2023-01-23T23:46:09.636Z,-15.86
2023-01-23T23:48:38.153Z,-15.99
2023-01-23T23:51:07.892Z,-16.05
2023-01-23T23:53:36.535Z,-16.10
2023-01-23T23:56:05.134Z,-16.09
2023-01-23T23:58:35.196Z,-16.04
